Delta Mallard — WDF8814 — position and weather

sailwx.info

Track history (hours):
 
Tides and Currents Weather Stations Pressure Air Temp Water Temp Dewpoint Dewpoint Depression Visibility Wind Speed Wind Dir Waves Ship Positions

Delta Mallard

Owner: Crosby Marine Transportation, Golden Meadow, LA. More information available from US FCC via Universal Licensing System and Coast Guard Vessel Documentation Center.

Last reported at 2017-Oct-20 04:58 UTC. Time now 2017-Oct-20 05:07 UTC.
Position N 29°43' W 095°14'.

Length 16 m; draft 3.5 m.

Type: Towing. MMSI: 367498860.

Date/timePositionNaut miles runAvg speedWind from/ knotsBaromVisibWave heightAir tempDewpointWater temp
2017-Oct-20 04:58N 29°43' W 095°14'0 0.0
2017-Oct-20 04:28N 29°43' W 095°14'0 0.0
2017-Oct-20 03:58N 29°43' W 095°14'0 0.0
2017-Oct-20 03:28N 29°43' W 095°14'0 0.0
2017-Oct-20 00:46N 29°43' W 095°14'0 0.0
2017-Oct-20 00:22N 29°43' W 095°14'0 0.0
2017-Oct-19 23:52N 29°43' W 095°14'0 0.0
2017-Oct-19 18:51N 29°43' W 095°14'1 1.8
2017-Oct-19 18:27N 29°44' W 095°14'3 5.0
2017-Oct-19 17:51N 29°45' W 095°11'2 5.2
2017-Oct-19 17:30N 29°44' W 095°09'  
2017-Oct-13 00:05N 29°45' W 095°04'1 4.3
2017-Oct-12 23:48N 29°44' W 095°03'1 4.2
2017-Oct-12 23:27N 29°44' W 095°01'2 3.5
2017-Oct-12 23:00N 29°42' W 095°00'2 3.8
2017-Oct-12 22:30N 29°41' W 094°59'2 4.0
2017-Oct-12 22:00N 29°39' W 094°58'2 4.2
2017-Oct-12 21:30N 29°37' W 094°57'2 4.2
2017-Oct-12 21:00N 29°35' W 094°56'2 4.0
2017-Oct-12 20:30N 29°33' W 094°55'2 4.1
2017-Oct-12 20:00N 29°32' W 094°53'  
Track history (hours):
 
Tides and Currents Weather Stations Pressure Air Temp Water Temp Dewpoint Dewpoint Depression Visibility Wind Speed Wind Dir Waves Ship Positions

Delta Mallard

Owner: Crosby Marine Transportation, Golden Meadow, LA. More information available from US FCC via Universal Licensing System and Coast Guard Vessel Documentation Center.

Last reported at 2017-Oct-20 04:58 UTC. Time now 2017-Oct-20 05:07 UTC.
Position N 29°43' W 095°14'.

Length 16 m; draft 3.5 m.

Type: Towing. MMSI: 367498860.

Date/timePositionNaut miles runAvg speedWind from/ knotsBaromVisibWave heightAir tempDewpointWater temp
2017-Oct-20 04:58N 29°43' W 095°14'0 0.0
2017-Oct-20 04:28N 29°43' W 095°14'0 0.0
2017-Oct-20 03:58N 29°43' W 095°14'0 0.0
2017-Oct-20 03:28N 29°43' W 095°14'0 0.0
2017-Oct-20 00:46N 29°43' W 095°14'0 0.0
2017-Oct-20 00:22N 29°43' W 095°14'0 0.0
2017-Oct-19 23:52N 29°43' W 095°14'0 0.0
2017-Oct-19 18:51N 29°43' W 095°14'1 1.8
2017-Oct-19 18:27N 29°44' W 095°14'3 5.0
2017-Oct-19 17:51N 29°45' W 095°11'2 5.2
2017-Oct-19 17:30N 29°44' W 095°09'  
2017-Oct-13 00:05N 29°45' W 095°04'1 4.3
2017-Oct-12 23:48N 29°44' W 095°03'1 4.2
2017-Oct-12 23:27N 29°44' W 095°01'2 3.5
2017-Oct-12 23:00N 29°42' W 095°00'2 3.8
2017-Oct-12 22:30N 29°41' W 094°59'2 4.0
2017-Oct-12 22:00N 29°39' W 094°58'2 4.2
2017-Oct-12 21:30N 29°37' W 094°57'2 4.2
2017-Oct-12 21:00N 29°35' W 094°56'2 4.0
2017-Oct-12 20:30N 29°33' W 094°55'2 4.1
2017-Oct-12 20:00N 29°32' W 094°53'  

Dump ship's entire track history